createdAt,value
2018-04-19T00:02:18.421Z,67.74
2018-04-19T00:04:45.951Z,68.09
2018-04-19T00:07:13.495Z,68.01
2018-04-19T00:09:41.072Z,67.59
2018-04-19T00:12:08.538Z,66.89
2018-04-19T00:14:36.016Z,66.91
2018-04-19T00:17:03.492Z,66.83
2018-04-19T00:19:30.976Z,66.77
2018-04-19T00:21:58.477Z,66.46
2018-04-19T00:24:25.947Z,66.75
2018-04-19T00:26:53.472Z,67.14
2018-04-19T00:29:20.939Z,66.85
2018-04-19T00:31:48.399Z,66.94
2018-04-19T00:34:15.890Z,66.72
2018-04-19T00:36:43.379Z,67.28
2018-04-19T00:39:10.906Z,67.46
2018-04-19T00:41:38.412Z,67.22
2018-04-19T00:44:05.872Z,66.91
2018-04-19T00:46:33.383Z,66.74
2018-04-19T00:49:00.914Z,66.68
2018-04-19T00:51:28.424Z,66.73
2018-04-19T00:53:55.894Z,66.96
2018-04-19T00:56:23.382Z,66.81
2018-04-19T00:58:50.935Z,66.98
2018-04-19T01:01:18.459Z,66.83
2018-04-19T01:03:45.956Z,66.71
2018-04-19T01:06:13.450Z,66.70
2018-04-19T01:08:40.957Z,66.89
2018-04-19T01:11:08.543Z,67.16
2018-04-19T01:13:36.036Z,67.27
2018-04-19T01:16:03.497Z,67.49
2018-04-19T01:18:30.985Z,67.66
2018-04-19T01:20:58.495Z,67.68
2018-04-19T01:23:25.959Z,67.71
2018-04-19T01:25:53.423Z,68.02
2018-04-19T01:28:20.917Z,68.20
2018-04-19T01:30:48.434Z,68.75
2018-04-19T01:33:15.908Z,69.00
2018-04-19T01:35:55.476Z,68.90
2018-04-19T01:38:22.960Z,68.85
2018-04-19T01:40:50.428Z,68.80
2018-04-19T01:43:17.918Z,69.22
2018-04-19T01:45:45.435Z,69.46
2018-04-19T01:48:12.924Z,69.39
2018-04-19T01:50:40.480Z,70.00
2018-04-19T01:53:08.020Z,70.57
2018-04-19T01:55:35.480Z,71.13
2018-04-19T01:58:03.004Z,71.39
2018-04-19T02:00:30.584Z,71.78
2018-04-19T02:02:58.083Z,71.97
2018-04-19T02:05:25.605Z,72.02
2018-04-19T02:07:53.171Z,72.10
2018-04-19T02:10:20.635Z,72.08
2018-04-19T02:12:48.092Z,71.72
2018-04-19T02:15:15.612Z,71.85
2018-04-19T02:17:43.089Z,71.98
2018-04-19T02:20:10.580Z,72.22
2018-04-19T02:22:38.089Z,72.19
2018-04-19T02:25:05.552Z,72.24
2018-04-19T02:27:33.091Z,72.10
2018-04-19T02:30:00.549Z,71.87
2018-04-19T02:32:28.050Z,71.59
2018-04-19T02:34:55.497Z,71.60
2018-04-19T02:37:23.029Z,71.48
2018-04-19T02:39:50.544Z,71.24
2018-04-19T02:42:18.031Z,71.15
2018-04-19T02:44:45.533Z,72.09
2018-04-19T02:47:13.011Z,72.60
2018-04-19T02:49:40.767Z,72.79
2018-04-19T02:52:08.268Z,72.57
2018-04-19T02:54:35.761Z,73.22
2018-04-19T02:57:03.248Z,73.33
2018-04-19T02:59:30.737Z,73.66
2018-04-19T03:01:58.267Z,73.77
2018-04-19T03:04:25.835Z,73.34
2018-04-19T03:06:53.348Z,73.30
2018-04-19T03:09:20.893Z,73.50
2018-04-19T03:11:48.403Z,73.43
2018-04-19T03:14:15.858Z,73.27
2018-04-19T03:16:43.341Z,73.80
2018-04-19T03:19:10.871Z,74.41
2018-04-19T03:21:38.347Z,74.93
2018-04-19T03:24:05.839Z,74.86
2018-04-19T03:26:33.305Z,74.91
2018-04-19T03:29:00.918Z,75.65
2018-04-19T03:31:28.367Z,75.67
2018-04-19T03:33:55.857Z,75.87
2018-04-19T03:36:23.420Z,75.71
2018-04-19T03:38:51.799Z,75.62
2018-04-19T03:41:19.363Z,75.40
2018-04-19T03:43:46.854Z,75.31
2018-04-19T03:46:14.371Z,75.34
2018-04-19T03:48:41.900Z,74.96
2018-04-19T03:51:09.372Z,75.28
2018-04-19T03:53:36.843Z,75.54
2018-04-19T03:56:04.324Z,75.75
2018-04-19T03:58:31.817Z,76.13
2018-04-19T04:00:59.309Z,75.94
2018-04-19T04:03:26.814Z,75.93
2018-04-19T04:05:54.305Z,75.90
2018-04-19T04:08:21.795Z,76.19
2018-04-19T04:10:49.345Z,75.88
2018-04-19T04:13:16.811Z,75.73
2018-04-19T04:15:44.313Z,75.63
2018-04-19T04:18:23.790Z,75.60
2018-04-19T04:21:03.229Z,75.35
2018-04-19T04:23:46.618Z,75.30
2018-04-19T04:26:14.246Z,75.14
2018-04-19T04:28:41.707Z,75.07
2018-04-19T04:31:09.272Z,74.96
2018-04-19T04:33:36.729Z,75.66
2018-04-19T04:36:04.186Z,75.97
2018-04-19T04:38:31.740Z,75.29
2018-04-19T04:40:59.223Z,73.99
2018-04-19T04:43:26.801Z,73.30
2018-04-19T04:45:54.321Z,73.16
2018-04-19T04:48:21.820Z,73.45
2018-04-19T04:50:49.289Z,73.80
2018-04-19T04:53:16.820Z,73.93
2018-04-19T04:55:44.352Z,73.91
2018-04-19T04:58:12.319Z,73.48
2018-04-19T05:00:39.840Z,73.12
2018-04-19T05:03:07.350Z,73.32
2018-04-19T05:05:34.800Z,73.10
2018-04-19T05:08:02.292Z,72.98
2018-04-19T05:10:29.812Z,72.51
2018-04-19T05:12:57.305Z,71.90
2018-04-19T05:15:24.797Z,71.67
2018-04-19T05:17:52.270Z,71.60
2018-04-19T05:20:19.793Z,71.22
2018-04-19T05:22:47.320Z,71.07
2018-04-19T05:25:14.820Z,70.56
2018-04-19T05:27:42.356Z,70.35
2018-04-19T05:30:09.915Z,70.31
2018-04-19T05:32:37.426Z,70.01
2018-04-19T05:35:04.883Z,69.55
2018-04-19T05:37:32.440Z,69.18
2018-04-19T05:40:00.008Z,68.92
2018-04-19T05:42:27.480Z,68.68
2018-04-19T05:44:55.000Z,68.35
2018-04-19T05:47:22.455Z,68.33
2018-04-19T05:49:49.915Z,68.07
2018-04-19T05:52:17.440Z,67.68
2018-04-19T05:54:44.954Z,67.59
2018-04-19T05:57:12.458Z,67.52
2018-04-19T05:59:39.968Z,67.21
2018-04-19T06:02:07.461Z,67.28
2018-04-19T06:04:35.033Z,66.72
2018-04-19T06:07:02.596Z,65.93
2018-04-19T06:09:30.064Z,65.37
2018-04-19T06:11:57.576Z,64.94
2018-04-19T06:14:25.042Z,64.41
2018-04-19T06:16:52.496Z,64.12
2018-04-19T06:19:19.996Z,63.96
2018-04-19T06:21:47.456Z,63.87
2018-04-19T06:24:14.945Z,63.73
2018-04-19T06:26:42.530Z,63.65
2018-04-19T06:29:10.049Z,63.21
2018-04-19T06:31:37.507Z,62.67
2018-04-19T06:34:04.998Z,62.25
2018-04-19T06:36:32.531Z,61.92
2018-04-19T06:39:00.121Z,61.54
2018-04-19T06:41:27.580Z,61.18
2018-04-19T06:43:55.107Z,61.25
2018-04-19T06:46:22.611Z,61.08
2018-04-19T06:48:50.063Z,60.76
2018-04-19T06:51:17.667Z,60.35
2018-04-19T06:53:45.166Z,60.13
2018-04-19T06:56:12.650Z,60.44
2018-04-19T06:58:40.141Z,60.54
2018-04-19T07:01:07.727Z,60.49
2018-04-19T07:03:35.329Z,60.44
2018-04-19T07:06:02.791Z,60.12
2018-04-19T07:08:30.345Z,59.66
2018-04-19T07:10:57.881Z,59.11
2018-04-19T07:13:25.416Z,58.46
2018-04-19T07:15:52.937Z,59.01
2018-04-19T07:18:20.485Z,59.77
2018-04-19T07:20:48.041Z,59.51
2018-04-19T07:23:15.508Z,59.62
2018-04-19T07:25:43.045Z,59.67
2018-04-19T07:28:10.601Z,59.33
2018-04-19T07:30:38.132Z,59.28
2018-04-19T07:33:05.684Z,59.65
2018-04-19T07:35:33.283Z,59.51
2018-04-19T07:38:00.804Z,59.22
2018-04-19T07:40:28.332Z,58.50
2018-04-19T07:42:55.799Z,57.81
2018-04-19T07:45:23.243Z,57.39
2018-04-19T07:47:50.743Z,57.04
2018-04-19T07:50:18.219Z,57.06
2018-04-19T07:52:45.707Z,57.15
2018-04-19T07:55:13.210Z,56.91
2018-04-19T07:57:40.717Z,56.35
2018-04-19T08:00:08.270Z,56.03
2018-04-19T08:02:35.785Z,56.31
2018-04-19T08:05:03.286Z,55.98
2018-04-19T08:07:30.820Z,55.59
2018-04-19T08:09:58.299Z,55.34
2018-04-19T08:12:25.796Z,55.58
2018-04-19T08:14:53.282Z,55.80
2018-04-19T08:17:20.852Z,55.87
2018-04-19T08:19:48.427Z,55.45
2018-04-19T08:22:16.083Z,55.30
2018-04-19T08:24:43.646Z,55.60
2018-04-19T08:27:11.134Z,56.05
2018-04-19T08:29:38.686Z,55.79
2018-04-19T08:32:06.209Z,55.38
2018-04-19T08:34:33.780Z,55.04
2018-04-19T08:37:01.260Z,54.97
2018-04-19T08:39:28.711Z,55.01
2018-04-19T08:41:56.281Z,54.44
2018-04-19T08:44:23.724Z,53.87
2018-04-19T08:46:51.227Z,54.14
2018-04-19T08:49:18.720Z,53.40
2018-04-19T08:51:46.169Z,52.38
2018-04-19T08:54:13.631Z,52.33
2018-04-19T08:56:41.082Z,52.60
2018-04-19T08:59:08.635Z,52.58
2018-04-19T09:01:36.226Z,52.71
2018-04-19T09:04:03.800Z,52.18
2018-04-19T09:06:31.422Z,51.84
2018-04-19T09:08:58.915Z,50.97
2018-04-19T09:11:26.483Z,51.04
2018-04-19T09:13:53.959Z,50.84
2018-04-19T09:16:21.442Z,50.75
2018-04-19T09:18:48.918Z,50.53
2018-04-19T09:21:16.493Z,51.11
2018-04-19T09:23:43.992Z,50.92
2018-04-19T09:26:11.471Z,50.46
2018-04-19T09:28:38.973Z,50.50
2018-04-19T09:31:06.463Z,50.05
2018-04-19T09:33:33.944Z,49.90
2018-04-19T09:36:01.424Z,49.40
2018-04-19T09:38:28.903Z,49.27
2018-04-19T09:40:56.411Z,48.98
2018-04-19T09:43:23.901Z,48.24
2018-04-19T09:45:51.427Z,48.41
2018-04-19T09:48:18.880Z,48.76
2018-04-19T09:50:46.412Z,48.55
2018-04-19T09:53:13.890Z,47.90
2018-04-19T09:55:41.376Z,47.19
2018-04-19T09:58:08.970Z,47.12
2018-04-19T10:00:42.173Z,46.65
2018-04-19T10:03:15.104Z,46.00
2018-04-19T10:05:47.366Z,46.50
2018-04-19T10:08:14.882Z,46.37
2018-04-19T10:10:42.366Z,45.73
2018-04-19T10:13:09.944Z,45.59
2018-04-19T10:15:37.399Z,46.11
2018-04-19T10:18:04.847Z,46.34
2018-04-19T10:20:32.332Z,46.73
2018-04-19T10:22:59.817Z,46.99
2018-04-19T10:25:27.347Z,46.79
2018-04-19T10:27:54.986Z,46.60
2018-04-19T10:30:22.444Z,46.02
2018-04-19T10:32:49.899Z,46.08
2018-04-19T10:35:17.386Z,46.33
2018-04-19T10:37:44.904Z,46.17
2018-04-19T10:40:12.352Z,45.60
2018-04-19T10:42:39.890Z,44.90
2018-04-19T10:45:07.457Z,44.11
2018-04-19T10:47:35.025Z,43.33
2018-04-19T10:50:02.518Z,42.96
2018-04-19T10:52:30.056Z,42.74
2018-04-19T10:54:57.557Z,42.98
2018-04-19T10:57:25.015Z,43.03
2018-04-19T10:59:52.588Z,43.21
2018-04-19T11:02:20.080Z,43.26
2018-04-19T11:04:47.587Z,43.48
2018-04-19T11:07:15.079Z,43.20
2018-04-19T11:09:42.544Z,43.89
2018-04-19T11:12:10.000Z,44.02
2018-04-19T11:14:37.471Z,43.92
2018-04-19T11:17:04.978Z,43.73
2018-04-19T11:19:32.440Z,43.46
2018-04-19T11:21:59.920Z,42.62
2018-04-19T11:24:27.394Z,42.33
2018-04-19T11:26:54.883Z,42.91
2018-04-19T11:29:22.416Z,43.51
2018-04-19T11:31:49.880Z,44.53
2018-04-19T11:34:17.433Z,44.61
2018-04-19T11:36:44.898Z,44.31
2018-04-19T11:39:12.406Z,44.72
2018-04-19T11:41:39.901Z,44.00
2018-04-19T11:44:07.355Z,43.07
2018-04-19T11:46:34.915Z,42.39
2018-04-19T11:49:02.413Z,42.80
2018-04-19T11:51:29.877Z,43.43
2018-04-19T11:53:57.444Z,43.73
2018-04-19T11:56:24.905Z,44.13
2018-04-19T11:58:52.417Z,44.27
2018-04-19T12:01:19.908Z,44.70
2018-04-19T12:03:47.402Z,45.08
2018-04-19T12:06:14.977Z,44.43
2018-04-19T12:08:42.495Z,44.38
2018-04-19T12:11:09.959Z,43.92
2018-04-19T12:13:37.577Z,43.77
2018-04-19T12:16:04.975Z,44.08
2018-04-19T12:18:32.453Z,43.87
2018-04-19T12:21:00.078Z,43.91
2018-04-19T12:23:27.544Z,43.91
2018-04-19T12:25:55.011Z,43.68
2018-04-19T12:28:22.488Z,43.70
2018-04-19T12:30:49.965Z,43.43
2018-04-19T12:33:17.520Z,43.24
2018-04-19T12:35:45.004Z,42.81
2018-04-19T12:38:12.488Z,42.82
2018-04-19T12:40:39.985Z,42.65
2018-04-19T12:43:07.567Z,42.31
2018-04-19T12:45:35.065Z,42.27
2018-04-19T12:48:02.581Z,42.64
2018-04-19T12:50:30.071Z,42.66
2018-04-19T12:52:57.577Z,42.32
2018-04-19T12:55:25.107Z,42.73
2018-04-19T12:57:52.597Z,42.41
2018-04-19T13:00:20.047Z,42.36
2018-04-19T13:02:47.536Z,42.29
2018-04-19T13:05:15.063Z,41.59
2018-04-19T13:07:42.581Z,41.34
2018-04-19T13:10:10.106Z,41.50
2018-04-19T13:12:37.589Z,41.64
2018-04-19T13:15:05.061Z,41.54
2018-04-19T13:17:32.683Z,41.53
2018-04-19T13:20:00.139Z,41.69
2018-04-19T13:22:27.595Z,41.63
2018-04-19T13:24:55.133Z,41.88
2018-04-19T13:27:22.622Z,41.62
2018-04-19T13:29:50.096Z,41.43
2018-04-19T13:32:17.572Z,40.66
2018-04-19T13:34:45.024Z,39.83
2018-04-19T13:37:12.490Z,39.69
2018-04-19T13:39:39.952Z,39.68
2018-04-19T13:42:07.448Z,38.90
2018-04-19T13:44:34.992Z,38.45
2018-04-19T13:47:02.443Z,37.99
2018-04-19T13:49:29.933Z,37.87
2018-04-19T13:51:57.403Z,38.96
2018-04-19T13:54:24.907Z,39.26
2018-04-19T13:56:52.402Z,39.71
2018-04-19T13:59:19.899Z,39.74
2018-04-19T14:01:47.373Z,38.73
2018-04-19T14:04:14.865Z,38.74
2018-04-19T14:06:42.448Z,39.22
2018-04-19T14:09:09.904Z,39.71
2018-04-19T14:11:37.400Z,39.92
2018-04-19T14:14:04.875Z,39.82
2018-04-19T14:16:32.355Z,39.88
2018-04-19T14:18:59.868Z,39.57
2018-04-19T14:21:27.478Z,38.82
2018-04-19T14:23:54.988Z,38.73
2018-04-19T14:26:22.518Z,38.77
2018-04-19T14:28:50.021Z,38.68
2018-04-19T14:31:17.516Z,38.44
2018-04-19T14:33:45.088Z,39.21
2018-04-19T14:36:12.628Z,38.98
2018-04-19T14:38:40.177Z,37.64
2018-04-19T14:41:07.666Z,38.67
2018-04-19T14:43:35.182Z,38.90
2018-04-19T14:46:02.636Z,38.37
2018-04-19T14:48:30.132Z,39.25
2018-04-19T14:50:57.654Z,39.27
2018-04-19T14:53:25.147Z,39.01
2018-04-19T14:55:52.673Z,38.49
2018-04-19T14:58:20.167Z,38.59
2018-04-19T15:00:47.773Z,38.47
2018-04-19T15:03:15.294Z,37.95
2018-04-19T15:05:42.759Z,38.06
2018-04-19T15:08:10.231Z,39.40
2018-04-19T15:10:37.679Z,40.61
2018-04-19T15:13:05.171Z,40.67
2018-04-19T15:15:32.645Z,41.15
2018-04-19T15:18:00.100Z,41.31
2018-04-19T15:20:27.595Z,41.31
2018-04-19T15:22:55.081Z,41.23
2018-04-19T15:25:22.761Z,40.85
2018-04-19T15:27:50.222Z,40.40
2018-04-19T15:30:17.696Z,40.02
2018-04-19T15:32:45.274Z,39.14
2018-04-19T15:35:12.827Z,37.41
2018-04-19T15:37:40.337Z,36.58
2018-04-19T15:40:07.954Z,36.36
2018-04-19T15:42:35.432Z,36.58
2018-04-19T15:45:02.917Z,36.41
2018-04-19T15:47:30.407Z,37.51
2018-04-19T15:49:57.874Z,38.91
2018-04-19T15:52:25.408Z,38.18
2018-04-19T15:54:52.883Z,36.54
2018-04-19T15:57:20.365Z,35.75
2018-04-19T15:59:47.846Z,35.52
2018-04-19T16:02:15.331Z,35.13
2018-04-19T16:04:42.813Z,35.25
2018-04-19T16:07:10.262Z,34.40
2018-04-19T16:09:37.860Z,35.39
2018-04-19T16:12:05.430Z,35.69
2018-04-19T16:14:32.949Z,36.93
2018-04-19T16:17:00.393Z,37.17
2018-04-19T16:19:27.877Z,37.58
2018-04-19T16:21:55.368Z,37.82
2018-04-19T16:24:22.893Z,38.56
2018-04-19T16:26:50.417Z,39.26
2018-04-19T16:29:18.031Z,38.92
2018-04-19T16:31:45.573Z,39.17
2018-04-19T16:34:13.114Z,39.58
2018-04-19T16:36:40.561Z,39.03
2018-04-19T16:39:08.071Z,38.77
2018-04-19T16:41:35.620Z,38.28
2018-04-19T16:44:03.095Z,39.22
2018-04-19T16:46:30.594Z,40.16
2018-04-19T16:48:58.063Z,41.37
2018-04-19T16:51:25.547Z,42.70
2018-04-19T16:53:53.020Z,43.44
2018-04-19T16:56:20.548Z,43.81
2018-04-19T16:58:48.007Z,43.98
2018-04-19T17:01:15.519Z,44.41
2018-04-19T17:03:43.016Z,44.74
2018-04-19T17:06:10.584Z,45.00
2018-04-19T17:08:38.036Z,45.04
2018-04-19T17:11:05.615Z,45.30
2018-04-19T17:13:33.078Z,45.40
2018-04-19T17:16:00.560Z,45.21
2018-04-19T17:18:28.070Z,45.39
2018-04-19T17:20:55.535Z,45.53
2018-04-19T17:23:23.023Z,45.62
2018-04-19T17:25:50.520Z,45.70
2018-04-19T17:28:17.996Z,45.83
2018-04-19T17:30:45.493Z,46.23
2018-04-19T17:33:13.028Z,46.33
2018-04-19T17:35:40.571Z,46.20
2018-04-19T17:38:08.034Z,46.72
2018-04-19T17:40:35.619Z,47.15
2018-04-19T17:43:03.104Z,47.10
2018-04-19T17:45:30.581Z,47.36
2018-04-19T17:47:58.143Z,47.71
2018-04-19T17:50:25.628Z,47.70
2018-04-19T17:52:53.112Z,47.86
2018-04-19T17:55:20.573Z,48.25
2018-04-19T17:57:48.066Z,48.74
2018-04-19T18:00:15.735Z,49.03
2018-04-19T18:02:43.239Z,49.13
2018-04-19T18:05:10.756Z,49.40
2018-04-19T18:07:38.211Z,49.88
2018-04-19T18:10:05.669Z,49.89
2018-04-19T18:12:33.127Z,50.52
2018-04-19T18:15:00.576Z,50.86
2018-04-19T18:17:28.086Z,51.49
2018-04-19T18:19:55.559Z,52.61
2018-04-19T18:22:23.104Z,52.90
2018-04-19T18:24:50.617Z,53.34
2018-04-19T18:27:18.103Z,53.85
2018-04-19T18:29:45.656Z,54.20
2018-04-19T18:32:13.180Z,54.50
2018-04-19T18:34:40.649Z,54.91
2018-04-19T18:37:08.155Z,55.05
2018-04-19T18:39:35.625Z,55.50
2018-04-19T18:42:03.117Z,55.53
2018-04-19T18:44:30.730Z,55.74
2018-04-19T18:46:58.215Z,56.10
2018-04-19T18:49:25.705Z,55.98
2018-04-19T18:51:53.167Z,56.28
2018-04-19T18:54:20.640Z,56.23
2018-04-19T18:56:48.177Z,56.50
2018-04-19T18:59:15.654Z,56.67
2018-04-19T19:01:43.178Z,56.59
2018-04-19T19:04:10.655Z,56.67
2018-04-19T19:06:38.187Z,56.99
2018-04-19T19:09:05.651Z,56.96
2018-04-19T19:11:33.371Z,57.07
2018-04-19T19:14:00.932Z,57.09
2018-04-19T19:16:28.479Z,57.11
2018-04-19T19:19:08.009Z,57.09
2018-04-19T19:21:35.603Z,57.22
2018-04-19T19:24:03.124Z,57.23
2018-04-19T19:26:30.818Z,57.36
2018-04-19T19:28:58.344Z,57.42
2018-04-19T19:31:25.836Z,57.68
2018-04-19T19:33:53.322Z,57.89
2018-04-19T19:36:20.805Z,57.92
2018-04-19T19:38:48.254Z,58.13
2018-04-19T19:41:15.764Z,58.20
2018-04-19T19:43:43.258Z,58.49
2018-04-19T19:46:10.758Z,58.63
2018-04-19T19:48:38.258Z,58.83
2018-04-19T19:51:05.772Z,59.06
2018-04-19T19:53:33.295Z,59.10
2018-04-19T19:56:00.764Z,58.82
2018-04-19T19:58:28.369Z,59.04
2018-04-19T20:00:55.934Z,58.96
2018-04-19T20:03:23.395Z,59.13
2018-04-19T20:05:50.959Z,59.21
2018-04-19T20:08:18.508Z,59.27
2018-04-19T20:10:45.953Z,59.54
2018-04-19T20:13:13.448Z,59.96
2018-04-19T20:15:40.924Z,60.23
2018-04-19T20:18:08.386Z,60.49
2018-04-19T20:20:35.832Z,60.64
2018-04-19T20:23:03.301Z,60.84
2018-04-19T20:25:30.795Z,60.77
2018-04-19T20:27:58.280Z,60.87
2018-04-19T20:30:25.768Z,60.94
2018-04-19T20:32:53.288Z,61.10
2018-04-19T20:35:20.793Z,61.14
2018-04-19T20:37:48.247Z,61.23
2018-04-19T20:40:15.730Z,61.52
2018-04-19T20:42:43.276Z,61.74
2018-04-19T20:45:10.732Z,61.91
2018-04-19T20:47:38.219Z,62.12
2018-04-19T20:50:05.796Z,62.20
2018-04-19T20:52:33.299Z,62.34
2018-04-19T20:55:00.756Z,62.18
2018-04-19T20:57:28.250Z,62.34
2018-04-19T20:59:55.784Z,62.38
2018-04-19T21:02:23.334Z,62.82
2018-04-19T21:04:50.792Z,63.16
2018-04-19T21:07:18.301Z,63.46
2018-04-19T21:09:45.804Z,63.23
2018-04-19T21:12:13.281Z,63.31
2018-04-19T21:14:40.776Z,63.57
2018-04-19T21:17:08.266Z,63.93
2018-04-19T21:19:35.764Z,63.95
2018-04-19T21:22:03.219Z,63.87
2018-04-19T21:24:30.666Z,64.03
2018-04-19T21:26:58.213Z,64.42
2018-04-19T21:29:25.650Z,64.61
2018-04-19T21:31:53.111Z,64.56
2018-04-19T21:34:20.573Z,64.93
2018-04-19T21:36:48.084Z,64.92
2018-04-19T21:39:15.527Z,65.16
2018-04-19T21:41:43.060Z,65.21
2018-04-19T21:44:10.567Z,65.26
2018-04-19T21:46:38.024Z,65.33
2018-04-19T21:49:05.530Z,65.88
2018-04-19T21:51:33.138Z,65.84
2018-04-19T21:54:00.649Z,66.08
2018-04-19T21:56:28.193Z,65.98
2018-04-19T21:58:55.639Z,66.13
2018-04-19T22:01:23.189Z,66.13
2018-04-19T22:03:50.698Z,66.45
2018-04-19T22:06:18.248Z,66.50
2018-04-19T22:08:45.723Z,66.62
2018-04-19T22:11:13.240Z,66.97
2018-04-19T22:13:40.735Z,66.94
2018-04-19T22:16:08.192Z,67.03
2018-04-19T22:18:35.695Z,67.38
2018-04-19T22:21:03.152Z,67.71
2018-04-19T22:23:30.600Z,67.95
2018-04-19T22:25:58.136Z,68.37
2018-04-19T22:28:25.703Z,68.53
2018-04-19T22:30:53.224Z,68.96
2018-04-19T22:33:20.709Z,69.35
2018-04-19T22:35:48.193Z,69.73
2018-04-19T22:38:15.712Z,70.05
2018-04-19T22:40:43.184Z,70.28
2018-04-19T22:43:10.636Z,70.64
2018-04-19T22:45:38.167Z,70.87
2018-04-19T22:48:05.645Z,71.14
2018-04-19T22:50:33.097Z,71.32
2018-04-19T22:53:00.618Z,71.55
2018-04-19T22:55:28.103Z,71.67
2018-04-19T22:57:55.703Z,71.53
2018-04-19T23:00:23.995Z,71.48
2018-04-19T23:02:51.514Z,71.46
2018-04-19T23:05:18.991Z,71.50
2018-04-19T23:07:46.492Z,71.42
2018-04-19T23:10:13.971Z,71.47
2018-04-19T23:12:41.453Z,71.42
2018-04-19T23:15:09.049Z,71.61
2018-04-19T23:17:36.559Z,71.74
2018-04-19T23:20:04.062Z,71.85
2018-04-19T23:22:34.446Z,72.14
2018-04-19T23:25:02.099Z,72.31
2018-04-19T23:27:29.589Z,72.37
2018-04-19T23:29:57.076Z,72.50
2018-04-19T23:32:24.584Z,72.70
2018-04-19T23:34:52.173Z,72.91
2018-04-19T23:37:19.674Z,73.01
2018-04-19T23:39:47.180Z,73.15
2018-04-19T23:42:14.745Z,73.29
2018-04-19T23:44:42.242Z,73.48
2018-04-19T23:47:09.756Z,73.73
2018-04-19T23:49:37.322Z,73.76
2018-04-19T23:52:04.813Z,73.91
2018-04-19T23:54:32.354Z,74.05
2018-04-19T23:56:59.853Z,74.23
2018-04-19T23:59:27.337Z,74.31
